Sea Angel Cin — TCUT7 — position and weather

sailwx.info

Track history (hours):
 
Tides and Currents Weather Stations Pressure Air Temp Water Temp Dewpoint Dewpoint Depression Visibility Wind Speed Wind Dir Waves Ship Positions

Sea Angel Cin

Last reported at 2017-Sep-12 04:13 UTC. Time now 2017-Sep-23 14:55 UTC.
Position N 36°45' E 031°28'.
Warning: this ship's position is 11 days out of date.

Length 29 m.

Type: Pleasure craft. MMSI: 271043207.

Date/timePositionNaut miles runAvg speedWind from/ knotsBaromVisibWave heightAir tempDewpointWater temp
2017-Sep-12 04:13N 36°45' E 031°28'0 0.0
2017-Sep-12 03:58N 36°45' E 031°28'0 0.0
2017-Sep-12 03:22N 36°45' E 031°28'0 0.0
2017-Sep-12 02:55N 36°45' E 031°28'0 0.0
2017-Sep-12 02:28N 36°45' E 031°28'0 0.0
2017-Sep-12 01:55N 36°45' E 031°28'0 0.0
2017-Sep-11 23:31N 36°45' E 031°28'0 0.0
2017-Sep-11 23:25N 36°45' E 031°28'0 0.0
2017-Sep-11 22:55N 36°45' E 031°28'0 0.0
2017-Sep-11 22:25N 36°45' E 031°28'0 0.0
2017-Sep-11 20:22N 36°45' E 031°28'0 0.0
2017-Sep-11 19:55N 36°45' E 031°28'0 0.0
2017-Sep-11 19:25N 36°45' E 031°28'0 0.0
2017-Sep-11 15:55N 36°45' E 031°28'0 0.0
2017-Sep-11 14:22N 36°45' E 031°28'0 0.0
2017-Sep-11 13:10N 36°45' E 031°28'0 0.0
2017-Sep-11 12:37N 36°45' E 031°28'0 0.0
2017-Sep-11 12:19N 36°45' E 031°28'1 2.4
2017-Sep-11 11:58N 36°45' E 031°29'1 2.5
2017-Sep-11 11:30N 36°44' E 031°29'1 1.8
2017-Sep-11 10:59N 36°45' E 031°29'0 0.0
2017-Sep-11 10:26N 36°45' E 031°29'0 0.0
2017-Sep-11 09:59N 36°45' E 031°29'0 0.0
2017-Sep-11 09:29N 36°45' E 031°29'2 4.0
2017-Sep-11 08:57N 36°46' E 031°27'1 2.1
2017-Sep-11 08:28N 36°45' E 031°28'0 0.0
2017-Sep-11 07:55N 36°45' E 031°28'0 0.0
2017-Sep-11 07:28N 36°45' E 031°28'0 0.0
2017-Sep-11 06:55N 36°45' E 031°28'0 0.0
2017-Sep-11 06:25N 36°45' E 031°28'0 0.0
2017-Sep-11 05:58N 36°45' E 031°28'0 0.0
2017-Sep-11 05:28N 36°45' E 031°28'0 0.0
2017-Sep-11 04:58N 36°45' E 031°28'0 0.0
2017-Sep-11 01:22N 36°45' E 031°28'0 0.0
2017-Sep-11 00:55N 36°45' E 031°28'0 0.0
2017-Sep-11 00:28N 36°45' E 031°28'0 0.0
2017-Sep-10 23:52N 36°45' E 031°28'0 0.0
2017-Sep-10 23:22N 36°45' E 031°28'0 0.0
2017-Sep-10 22:58N 36°45' E 031°28'0 0.0
2017-Sep-10 22:28N 36°45' E 031°28'0 0.0
2017-Sep-10 18:10N 36°45' E 031°28'0 0.0
2017-Sep-10 17:55N 36°45' E 031°28'0 0.0
2017-Sep-10 16:52N 36°45' E 031°28'0 0.0
2017-Sep-10 16:25N 36°45' E 031°28'0 0.0
2017-Sep-10 15:58N 36°45' E 031°28'0 0.0
2017-Sep-10 15:28N 36°45' E 031°28'0 0.0
2017-Sep-10 14:52N 36°45' E 031°28'0 0.0
2017-Sep-10 13:58N 36°45' E 031°28'0 0.0
2017-Sep-10 13:28N 36°45' E 031°28'0 0.1
2017-Sep-10 13:00N 36°45' E 031°28'1 2.1
2017-Sep-10 12:29N 36°45' E 031°29'0 0.0
2017-Sep-10 11:59N 36°45' E 031°29'3 6.5
2017-Sep-10 11:31N 36°43' E 031°32'6 8.7
2017-Sep-10 10:52N 36°40' E 031°38'3 1.1
2017-Sep-10 08:30N 36°41' E 031°35'7 0.7
2017-Sep-09 21:45N 36°45' E 031°28'0 0.0
2017-Sep-09 21:27N 36°45' E 031°28'0 0.0
2017-Sep-09 20:57N 36°45' E 031°28'0 0.0
2017-Sep-09 18:57N 36°45' E 031°28'0 0.0
2017-Sep-09 18:30N 36°45' E 031°28'0 0.0
2017-Sep-09 18:00N 36°45' E 031°28'0 0.0
2017-Sep-09 16:57N 36°45' E 031°28'0 0.0
2017-Sep-09 16:30N 36°45' E 031°28'0 0.0
2017-Sep-09 15:57N 36°45' E 031°28'0 0.0
2017-Sep-09 15:30N 36°45' E 031°28'0 0.0
2017-Sep-09 14:03N 36°45' E 031°28'0 0.1
2017-Sep-09 14:00N 36°45' E 031°28'0 0.0
2017-Sep-09 13:27N 36°45' E 031°28'0 0.0
2017-Sep-09 13:00N 36°45' E 031°28'0 0.0
2017-Sep-09 12:30N 36°45' E 031°28'0 0.0
2017-Sep-09 12:00N 36°45' E 031°28'1 2.2
2017-Sep-09 11:28N 36°45' E 031°29'0 0.0
2017-Sep-09 10:58N 36°45' E 031°29'0 1.0
2017-Sep-09 10:30N 36°44' E 031°29'4 6.4
2017-Sep-09 09:50N 36°45' E 031°24'1 1.5
2017-Sep-09 09:28N 36°46' E 031°23'0 0.0
2017-Sep-09 08:58N 36°46' E 031°23'3 0.2
2017-Sep-08 14:52N 36°45' E 031°28'0 0.0
2017-Sep-08 14:28N 36°45' E 031°28'0 0.0
2017-Sep-08 13:49N 36°45' E 031°28'0 0.0
2017-Sep-08 13:28N 36°45' E 031°28'0 0.0
2017-Sep-08 12:55N 36°45' E 031°28'1 2.5
2017-Sep-08 12:27N 36°45' E 031°29'0 0.0
2017-Sep-08 12:00N 36°45' E 031°29'2 4.3
2017-Sep-08 11:30N 36°43' E 031°31'4 7.4
2017-Sep-08 11:00N 36°41' E 031°35'4 7.6
2017-Sep-08 10:30N 36°39' E 031°39'  
2017-Sep-05 12:16N 36°45' E 031°28'1 1.8
2017-Sep-05 11:55N 36°45' E 031°29'0 0.0
2017-Sep-05 11:07N 36°45' E 031°29'0 2.7
2017-Sep-05 11:00N 36°44' E 031°29'1 0.2
2017-Sep-05 02:37N 36°45' E 031°28'0 0.0
2017-Sep-05 02:22N 36°45' E 031°28'0 0.0
2017-Sep-05 01:58N 36°45' E 031°28'0 0.0
2017-Sep-04 17:40N 36°45' E 031°28'0 0.0
2017-Sep-04 17:28N 36°45' E 031°28'0 0.0
2017-Sep-04 16:58N 36°45' E 031°28'0 0.0
2017-Sep-04 16:28N 36°45' E 031°28'0 0.0
2017-Sep-04 15:14N 36°45' E 031°28'0 0.0
2017-Sep-04 14:58N 36°45' E 031°28'0 0.0
2017-Sep-04 14:25N 36°45' E 031°28'0 0.0
2017-Sep-04 13:55N 36°45' E 031°28'0 0.0
2017-Sep-04 13:25N 36°45' E 031°28'0 0.0
2017-Sep-04 12:50N 36°45' E 031°28'0 0.0
2017-Sep-04 12:25N 36°45' E 031°28'0 0.0
2017-Sep-04 11:55N 36°45' E 031°28'0 0.0
2017-Sep-04 11:08N 36°45' E 031°28'0 0.0
2017-Sep-04 10:47N 36°45' E 031°28'0 0.0
2017-Sep-04 10:20N 36°45' E 031°28'0 0.0
2017-Sep-04 09:38N 36°45' E 031°28'0 0.0
2017-Sep-04 08:26N 36°45' E 031°28'0 0.0
2017-Sep-04 01:26N 36°45' E 031°28'0 0.0
2017-Sep-04 00:56N 36°45' E 031°28'0 0.0
2017-Sep-03 20:44N 36°45' E 031°28'0 0.0
2017-Sep-03 20:11N 36°45' E 031°28'0 0.0
2017-Sep-03 19:56N 36°45' E 031°28'0 0.0
2017-Sep-03 19:26N 36°45' E 031°28'0 0.0
2017-Sep-03 18:59N 36°45' E 031°28'0 0.0
2017-Sep-03 17:32N 36°45' E 031°28'0 0.0
2017-Sep-03 17:26N 36°45' E 031°28'0 0.0
2017-Sep-03 16:59N 36°45' E 031°28'0 0.0
2017-Sep-03 14:44N 36°45' E 031°28'0 0.0
2017-Sep-03 13:59N 36°45' E 031°28'  
Track history (hours):
 
Tides and Currents Weather Stations Pressure Air Temp Water Temp Dewpoint Dewpoint Depression Visibility Wind Speed Wind Dir Waves Ship Positions

Sea Angel Cin

Last reported at 2017-Sep-12 04:13 UTC. Time now 2017-Sep-23 14:55 UTC.
Position N 36°45' E 031°28'.
Warning: this ship's position is 11 days out of date.

Length 29 m.

Type: Pleasure craft. MMSI: 271043207.

Date/timePositionNaut miles runAvg speedWind from/ knotsBaromVisibWave heightAir tempDewpointWater temp
2017-Sep-12 04:13N 36°45' E 031°28'0 0.0
2017-Sep-12 03:58N 36°45' E 031°28'0 0.0
2017-Sep-12 03:22N 36°45' E 031°28'0 0.0
2017-Sep-12 02:55N 36°45' E 031°28'0 0.0
2017-Sep-12 02:28N 36°45' E 031°28'0 0.0
2017-Sep-12 01:55N 36°45' E 031°28'0 0.0
2017-Sep-11 23:31N 36°45' E 031°28'0 0.0
2017-Sep-11 23:25N 36°45' E 031°28'0 0.0
2017-Sep-11 22:55N 36°45' E 031°28'0 0.0
2017-Sep-11 22:25N 36°45' E 031°28'0 0.0
2017-Sep-11 20:22N 36°45' E 031°28'0 0.0
2017-Sep-11 19:55N 36°45' E 031°28'0 0.0
2017-Sep-11 19:25N 36°45' E 031°28'0 0.0
2017-Sep-11 15:55N 36°45' E 031°28'0 0.0
2017-Sep-11 14:22N 36°45' E 031°28'0 0.0
2017-Sep-11 13:10N 36°45' E 031°28'0 0.0
2017-Sep-11 12:37N 36°45' E 031°28'0 0.0
2017-Sep-11 12:19N 36°45' E 031°28'1 2.4
2017-Sep-11 11:58N 36°45' E 031°29'1 2.5
2017-Sep-11 11:30N 36°44' E 031°29'1 1.8
2017-Sep-11 10:59N 36°45' E 031°29'0 0.0
2017-Sep-11 10:26N 36°45' E 031°29'0 0.0
2017-Sep-11 09:59N 36°45' E 031°29'0 0.0
2017-Sep-11 09:29N 36°45' E 031°29'2 4.0
2017-Sep-11 08:57N 36°46' E 031°27'1 2.1
2017-Sep-11 08:28N 36°45' E 031°28'0 0.0
2017-Sep-11 07:55N 36°45' E 031°28'0 0.0
2017-Sep-11 07:28N 36°45' E 031°28'0 0.0
2017-Sep-11 06:55N 36°45' E 031°28'0 0.0
2017-Sep-11 06:25N 36°45' E 031°28'0 0.0
2017-Sep-11 05:58N 36°45' E 031°28'0 0.0
2017-Sep-11 05:28N 36°45' E 031°28'0 0.0
2017-Sep-11 04:58N 36°45' E 031°28'0 0.0
2017-Sep-11 01:22N 36°45' E 031°28'0 0.0
2017-Sep-11 00:55N 36°45' E 031°28'0 0.0
2017-Sep-11 00:28N 36°45' E 031°28'0 0.0
2017-Sep-10 23:52N 36°45' E 031°28'0 0.0
2017-Sep-10 23:22N 36°45' E 031°28'0 0.0
2017-Sep-10 22:58N 36°45' E 031°28'0 0.0
2017-Sep-10 22:28N 36°45' E 031°28'0 0.0
2017-Sep-10 18:10N 36°45' E 031°28'0 0.0
2017-Sep-10 17:55N 36°45' E 031°28'0 0.0
2017-Sep-10 16:52N 36°45' E 031°28'0 0.0
2017-Sep-10 16:25N 36°45' E 031°28'0 0.0
2017-Sep-10 15:58N 36°45' E 031°28'0 0.0
2017-Sep-10 15:28N 36°45' E 031°28'0 0.0
2017-Sep-10 14:52N 36°45' E 031°28'0 0.0
2017-Sep-10 13:58N 36°45' E 031°28'0 0.0
2017-Sep-10 13:28N 36°45' E 031°28'0 0.1
2017-Sep-10 13:00N 36°45' E 031°28'1 2.1
2017-Sep-10 12:29N 36°45' E 031°29'0 0.0
2017-Sep-10 11:59N 36°45' E 031°29'3 6.5
2017-Sep-10 11:31N 36°43' E 031°32'6 8.7
2017-Sep-10 10:52N 36°40' E 031°38'3 1.1
2017-Sep-10 08:30N 36°41' E 031°35'7 0.7
2017-Sep-09 21:45N 36°45' E 031°28'0 0.0
2017-Sep-09 21:27N 36°45' E 031°28'0 0.0
2017-Sep-09 20:57N 36°45' E 031°28'0 0.0
2017-Sep-09 18:57N 36°45' E 031°28'0 0.0
2017-Sep-09 18:30N 36°45' E 031°28'0 0.0
2017-Sep-09 18:00N 36°45' E 031°28'0 0.0
2017-Sep-09 16:57N 36°45' E 031°28'0 0.0
2017-Sep-09 16:30N 36°45' E 031°28'0 0.0
2017-Sep-09 15:57N 36°45' E 031°28'0 0.0
2017-Sep-09 15:30N 36°45' E 031°28'0 0.0
2017-Sep-09 14:03N 36°45' E 031°28'0 0.1
2017-Sep-09 14:00N 36°45' E 031°28'0 0.0
2017-Sep-09 13:27N 36°45' E 031°28'0 0.0
2017-Sep-09 13:00N 36°45' E 031°28'0 0.0
2017-Sep-09 12:30N 36°45' E 031°28'0 0.0
2017-Sep-09 12:00N 36°45' E 031°28'1 2.2
2017-Sep-09 11:28N 36°45' E 031°29'0 0.0
2017-Sep-09 10:58N 36°45' E 031°29'0 1.0
2017-Sep-09 10:30N 36°44' E 031°29'4 6.4
2017-Sep-09 09:50N 36°45' E 031°24'1 1.5
2017-Sep-09 09:28N 36°46' E 031°23'0 0.0
2017-Sep-09 08:58N 36°46' E 031°23'3 0.2
2017-Sep-08 14:52N 36°45' E 031°28'0 0.0
2017-Sep-08 14:28N 36°45' E 031°28'0 0.0
2017-Sep-08 13:49N 36°45' E 031°28'0 0.0
2017-Sep-08 13:28N 36°45' E 031°28'0 0.0
2017-Sep-08 12:55N 36°45' E 031°28'1 2.5
2017-Sep-08 12:27N 36°45' E 031°29'0 0.0
2017-Sep-08 12:00N 36°45' E 031°29'2 4.3
2017-Sep-08 11:30N 36°43' E 031°31'4 7.4
2017-Sep-08 11:00N 36°41' E 031°35'4 7.6
2017-Sep-08 10:30N 36°39' E 031°39'  
2017-Sep-05 12:16N 36°45' E 031°28'1 1.8
2017-Sep-05 11:55N 36°45' E 031°29'0 0.0
2017-Sep-05 11:07N 36°45' E 031°29'0 2.7
2017-Sep-05 11:00N 36°44' E 031°29'1 0.2
2017-Sep-05 02:37N 36°45' E 031°28'0 0.0
2017-Sep-05 02:22N 36°45' E 031°28'0 0.0
2017-Sep-05 01:58N 36°45' E 031°28'0 0.0
2017-Sep-04 17:40N 36°45' E 031°28'0 0.0
2017-Sep-04 17:28N 36°45' E 031°28'0 0.0
2017-Sep-04 16:58N 36°45' E 031°28'0 0.0
2017-Sep-04 16:28N 36°45' E 031°28'0 0.0
2017-Sep-04 15:14N 36°45' E 031°28'0 0.0
2017-Sep-04 14:58N 36°45' E 031°28'0 0.0
2017-Sep-04 14:25N 36°45' E 031°28'0 0.0
2017-Sep-04 13:55N 36°45' E 031°28'0 0.0
2017-Sep-04 13:25N 36°45' E 031°28'0 0.0
2017-Sep-04 12:50N 36°45' E 031°28'0 0.0
2017-Sep-04 12:25N 36°45' E 031°28'0 0.0
2017-Sep-04 11:55N 36°45' E 031°28'0 0.0
2017-Sep-04 11:08N 36°45' E 031°28'0 0.0
2017-Sep-04 10:47N 36°45' E 031°28'0 0.0
2017-Sep-04 10:20N 36°45' E 031°28'0 0.0
2017-Sep-04 09:38N 36°45' E 031°28'0 0.0
2017-Sep-04 08:26N 36°45' E 031°28'0 0.0
2017-Sep-04 01:26N 36°45' E 031°28'0 0.0
2017-Sep-04 00:56N 36°45' E 031°28'0 0.0
2017-Sep-03 20:44N 36°45' E 031°28'0 0.0
2017-Sep-03 20:11N 36°45' E 031°28'0 0.0
2017-Sep-03 19:56N 36°45' E 031°28'0 0.0
2017-Sep-03 19:26N 36°45' E 031°28'0 0.0
2017-Sep-03 18:59N 36°45' E 031°28'0 0.0
2017-Sep-03 17:32N 36°45' E 031°28'0 0.0
2017-Sep-03 17:26N 36°45' E 031°28'0 0.0
2017-Sep-03 16:59N 36°45' E 031°28'0 0.0
2017-Sep-03 14:44N 36°45' E 031°28'0 0.0
2017-Sep-03 13:59N 36°45' E 031°28'  

Dump ship's entire track history